Time;durP1;ratioP1;P1;durP2;ratioP2;P2;SDS_P1;SDS_P2;PMS_P1;PMS_P2;Temp;Humidity;BMP_temperature;BMP_pressure;BME280_temperature;BME280_humidity;BME280_pressure;Samples;Min_cycle;Max_cycle;Signal;HPM_P1;HPM_P2
2022/10/24 00:01:42;;;;;;;0.00;0.00;;;16.10;99.90;15.40;96972.00;;;;5082143;28;20559;-78
2022/10/24 00:04:10;;;;;;;0.00;0.00;;;16.10;99.90;15.40;96973.00;;;;5079474;28;20554;-77
2022/10/24 00:06:39;;;;;;;0.00;0.00;;;16.10;99.90;15.40;96983.00;;;;5072556;28;20190;-78
2022/10/24 00:09:08;;;;;;;0.00;0.00;;;16.10;99.90;15.40;96974.00;;;;5080834;28;20221;-78
2022/10/24 00:11:37;;;;;;;0.00;0.00;;;16.10;99.90;15.40;96963.00;;;;5076451;28;20201;-77
2022/10/24 00:14:06;;;;;;;0.00;0.00;;;16.10;99.90;15.40;96961.00;;;;5082080;28;20258;-77
2022/10/24 00:16:35;;;;;;;0.00;0.00;;;16.20;99.90;15.60;96972.00;;;;5057190;28;20198;-76
2022/10/24 00:19:03;;;;;;;0.00;0.00;;;16.20;99.90;15.60;96965.00;;;;5072346;28;20214;-77
2022/10/24 00:21:31;;;;;;;0.00;0.00;;;16.30;99.90;15.60;96952.00;;;;5088381;28;20189;-77
2022/10/24 00:24:00;;;;;;;0.00;0.00;;;16.30;99.90;15.50;96958.00;;;;5091087;28;20209;-77
2022/10/24 00:26:28;;;;;;;0.00;0.00;;;16.30;99.90;15.50;96967.00;;;;5083562;28;20189;-76
2022/10/24 00:28:57;;;;;;;0.00;0.00;;;16.20;99.90;15.40;96964.00;;;;5081047;28;20225;-76
2022/10/24 00:31:26;;;;;;;0.00;0.00;;;16.10;99.90;15.30;96952.00;;;;5076579;28;20186;-77
2022/10/24 00:33:56;;;;;;;0.00;0.00;;;16.00;99.90;15.20;96927.00;;;;5071807;28;20247;-78
2022/10/24 00:36:24;;;;;;;0.00;0.00;;;16.00;99.90;15.20;96912.00;;;;5075519;28;20216;-77
2022/10/24 00:38:54;;;;;;;0.00;0.00;;;15.90;99.90;15.20;96920.00;;;;5081259;28;20212;-75
2022/10/24 00:41:26;;;;;;;0.10;0.10;;;15.90;99.90;15.20;96932.00;;;;5080498;28;20251;-75
2022/10/24 00:44:18;;;;;;;0.00;0.00;;;15.90;99.90;15.10;96942.00;;;;5073613;28;20197;-72
2022/10/24 00:46:53;;;;;;;0.00;0.00;;;15.80;99.90;15.00;96915.00;;;;5076261;28;20196;-72
2022/10/24 00:49:28;;;;;;;0.00;0.00;;;15.80;99.90;15.00;96919.00;;;;5077973;28;20225;-72
2022/10/24 00:52:03;;;;;;;0.00;0.00;;;15.70;99.90;15.00;96908.00;;;;5090004;28;20659;-73
2022/10/24 00:54:32;;;;;;;0.00;0.00;;;15.70;99.90;15.00;96913.00;;;;5104652;28;20218;-73
2022/10/24 00:57:07;;;;;;;0.00;0.00;;;15.70;99.90;14.90;96929.00;;;;5100330;28;20189;-73
2022/10/24 00:59:40;;;;;;;0.00;0.00;;;15.60;99.90;14.90;96931.00;;;;5079620;28;20213;-74
2022/10/24 01:02:10;;;;;;;0.00;0.00;;;15.60;99.90;14.90;96871.00;;;;5091067;28;20193;-73
2022/10/24 01:04:39;;;;;;;0.00;0.00;;;15.60;99.90;14.90;96931.00;;;;5092643;28;20289;-73
2022/10/24 01:07:27;;;;;;;0.00;0.00;;;15.60;99.90;14.80;96922.00;;;;5072124;28;20197;-74
2022/10/24 01:10:18;;;;;;;0.00;0.00;;;15.60;99.90;14.80;96923.00;;;;5083444;28;20225;-73
2022/10/24 01:13:02;;;;;;;0.00;0.00;;;15.50;99.90;14.70;96925.00;;;;5079044;28;20234;-74
2022/10/24 01:15:42;;;;;;;0.00;0.00;;;15.50;99.90;14.70;96936.00;;;;5089872;28;20197;-74
2022/10/24 01:18:23;;;;;;;0.00;0.00;;;15.40;99.90;14.70;96939.00;;;;5087695;28;20217;-73
2022/10/24 01:21:09;;;;;;;0.00;0.00;;;15.40;99.90;14.70;96943.00;;;;5093186;28;20242;-73
2022/10/24 01:24:24;;;;;;;0.00;0.00;;;15.40;99.90;14.60;96949.00;;;;5092687;28;20205;-73
2022/10/24 01:27:08;;;;;;;0.00;0.00;;;15.30;99.90;14.50;96934.00;;;;5082430;28;20205;-73
2022/10/24 01:29:53;;;;;;;0.00;0.00;;;15.30;99.90;14.50;96920.00;;;;5082505;28;20240;-73
2022/10/24 01:32:35;;;;;;;0.00;0.00;;;15.20;99.90;14.40;96922.00;;;;5074836;28;20653;-73
2022/10/24 01:35:15;;;;;;;0.00;0.00;;;15.20;99.90;14.40;96921.00;;;;5078830;28;20557;-74
2022/10/24 01:37:51;;;;;;;0.00;0.00;;;15.10;99.90;14.20;96907.00;;;;5088551;28;20214;-75
2022/10/24 01:40:24;;;;;;;0.00;0.00;;;15.10;99.90;14.40;96909.00;;;;5080368;28;20193;-75
2022/10/24 01:42:59;;;;;;;0.00;0.00;;;15.10;99.90;14.40;96918.00;;;;5075048;28;20194;-74
2022/10/24 01:45:34;;;;;;;0.00;0.00;;;15.10;99.90;14.30;96920.00;;;;5079483;28;20197;-75
2022/10/24 01:48:09;;;;;;;0.00;0.00;;;15.10;99.90;14.30;96908.00;;;;5082622;28;20212;-74
2022/10/24 01:50:39;;;;;;;0.10;0.10;;;15.10;99.90;14.30;96920.00;;;;5082417;28;20197;-74
2022/10/24 01:53:09;;;;;;;0.00;0.00;;;15.10;99.90;14.30;96928.00;;;;5094435;28;20199;-74
2022/10/24 01:55:40;;;;;;;0.10;0.10;;;15.00;99.90;14.30;96918.00;;;;5114847;28;20188;-74
2022/10/24 01:58:08;;;;;;;0.00;0.00;;;15.00;99.90;14.20;96911.00;;;;5085891;28;20216;-74
2022/10/24 02:00:38;;;;;;;0.10;0.10;;;15.00;99.90;14.20;96915.00;;;;5084673;28;20677;-74
2022/10/24 02:03:20;;;;;;;0.00;0.00;;;14.90;99.90;14.20;96938.00;;;;5085333;28;20204;-74
2022/10/24 02:05:54;;;;;;;0.10;0.10;;;14.90;99.90;14.20;96921.00;;;;5075327;28;20201;-74
2022/10/24 02:08:31;;;;;;;0.00;0.00;;;14.90;99.90;14.10;96926.00;;;;5084810;28;20225;-74
2022/10/24 02:11:05;;;;;;;0.10;0.10;;;14.90;99.90;14.10;96924.00;;;;5075762;28;20193;-75
2022/10/24 02:13:43;;;;;;;0.10;0.10;;;14.90;99.90;14.10;96900.00;;;;5092527;28;20208;-75
2022/10/24 02:16:18;;;;;;;0.00;0.00;;;14.90;99.90;14.10;96909.00;;;;5094176;28;20254;-75
2022/10/24 02:18:48;;;;;;;0.00;0.00;;;14.90;99.90;14.10;96917.00;;;;5084473;28;20281;-75
2022/10/24 02:21:28;;;;;;;0.00;0.00;;;14.80;99.90;14.10;96928.00;;;;5074559;28;20243;-75
2022/10/24 02:24:02;;;;;;;0.00;0.00;;;14.80;99.90;14.10;96926.00;;;;5082873;28;20603;-75
2022/10/24 02:26:38;;;;;;;0.00;0.00;;;14.80;99.90;14.10;96919.00;;;;5063242;28;20727;-75
2022/10/24 02:29:12;;;;;;;0.10;0.10;;;14.90;99.90;14.10;96936.00;;;;5081014;28;20247;-73
2022/10/24 02:31:50;;;;;;;0.00;0.00;;;14.90;99.90;14.10;96923.00;;;;5081252;28;20630;-74
2022/10/24 02:34:22;;;;;;;0.00;0.00;;;14.80;99.90;14.10;96872.00;;;;5086013;28;20765;-74
2022/10/24 02:36:56;;;;;;;0.00;0.00;;;14.80;99.90;14.10;96922.00;;;;5089911;28;20192;-74
2022/10/24 02:39:26;;;;;;;0.00;0.00;;;14.80;99.90;14.10;96876.00;;;;5080939;28;20217;-75
2022/10/24 02:41:58;;;;;;;0.00;0.00;;;14.80;99.90;14.00;96927.00;;;;5085085;28;20240;-75
2022/10/24 02:44:28;;;;;;;0.00;0.00;;;14.80;99.90;14.00;96938.00;;;;5091466;28;20201;-75
2022/10/24 02:47:03;;;;;;;0.00;0.00;;;14.80;99.90;14.00;96940.00;;;;5086204;28;20248;-75
2022/10/24 02:49:32;;;;;;;0.00;0.00;;;14.80;99.90;14.00;96938.00;;;;5083569;28;20704;-74
2022/10/24 02:52:01;;;;;;;0.00;0.00;;;14.80;99.90;14.00;96934.00;;;;5093514;28;20668;-75
2022/10/24 02:54:29;;;;;;;0.00;0.00;;;14.70;99.90;14.00;96942.00;;;;5105413;28;20200;-76
2022/10/24 02:57:02;;;;;;;0.00;0.00;;;14.70;99.90;14.00;96953.00;;;;5102014;28;20201;-74
2022/10/24 02:59:30;;;;;;;0.00;0.00;;;14.70;99.90;13.90;96941.00;;;;5081147;28;20278;-75
2022/10/24 03:02:00;;;;;;;0.00;0.00;;;14.70;99.90;13.90;96937.00;;;;5082476;28;20748;-74
2022/10/24 03:04:28;;;;;;;0.00;0.00;;;14.70;99.90;13.90;96939.00;;;;5077759;28;20259;-74
2022/10/24 03:06:56;;;;;;;0.03;0.03;;;14.70;99.90;13.90;96931.00;;;;5075182;28;20280;-74
2022/10/24 03:09:24;;;;;;;0.00;0.00;;;14.60;99.90;13.80;96930.00;;;;5080896;28;20747;-73
2022/10/24 03:11:52;;;;;;;0.00;0.00;;;14.60;99.90;13.80;96932.00;;;;5073067;28;20259;-73
2022/10/24 03:14:20;;;;;;;0.00;0.00;;;14.60;99.90;13.80;96928.00;;;;5085835;28;20544;-73
2022/10/24 03:16:48;;;;;;;0.00;0.00;;;14.60;99.90;13.80;96931.00;;;;5102059;28;20660;-73
2022/10/24 03:19:18;;;;;;;0.10;0.10;;;14.50;99.90;13.80;96946.00;;;;5081512;28;20214;-73
2022/10/24 03:21:46;;;;;;;0.00;0.00;;;14.50;99.90;13.70;96936.00;;;;5081020;28;20198;-73
2022/10/24 03:24:14;;;;;;;0.00;0.00;;;14.50;99.90;13.60;96948.00;;;;5081409;28;20192;-74
2022/10/24 03:26:58;;;;;;;0.00;0.00;;;14.50;99.90;13.70;96929.00;;;;5080590;28;20622;-73
2022/10/24 03:29:26;;;;;;;0.00;0.00;;;14.50;99.90;13.70;96935.00;;;;5080814;28;20213;-73
2022/10/24 03:31:54;;;;;;;0.10;0.10;;;14.50;99.90;13.60;96932.00;;;;5073794;28;20190;-74
2022/10/24 03:34:23;;;;;;;0.00;0.00;;;14.40;99.90;13.60;96933.00;;;;5056736;28;20201;-73
2022/10/24 03:36:51;;;;;;;0.00;0.00;;;14.40;99.90;13.60;96927.00;;;;5086205;28;20222;-72
2022/10/24 03:39:19;;;;;;;0.00;0.00;;;14.40;99.90;13.50;96929.00;;;;5094190;28;20708;-73
2022/10/24 03:41:47;;;;;;;0.00;0.00;;;14.30;99.90;13.50;96919.00;;;;5098625;28;20624;-73
2022/10/24 03:44:16;;;;;;;0.00;0.00;;;14.30;99.90;13.60;96923.00;;;;5099651;28;20186;-74
2022/10/24 03:46:44;;;;;;;0.08;0.08;;;14.30;99.90;13.60;96929.00;;;;5091367;28;20258;-73
2022/10/24 03:49:12;;;;;;;0.05;0.05;;;14.30;99.90;13.50;96945.00;;;;5093123;28;20267;-73
2022/10/24 03:51:41;;;;;;;0.00;0.00;;;14.30;99.90;13.50;96938.00;;;;5099569;28;20205;-73
2022/10/24 03:54:10;;;;;;;0.10;0.10;;;14.30;99.90;13.50;96941.00;;;;5098866;28;20236;-74
2022/10/24 03:56:38;;;;;;;0.00;0.00;;;14.30;99.90;13.50;96937.00;;;;5084210;28;20223;-74
2022/10/24 03:59:06;;;;;;;0.10;0.10;;;14.20;99.90;13.40;96936.00;;;;5060956;28;20209;-74
2022/10/24 04:01:34;;;;;;;0.10;0.10;;;14.20;99.90;13.40;96894.00;;;;5079645;28;20394;-74
2022/10/24 04:04:03;;;;;;;0.00;0.00;;;14.20;99.90;13.40;96924.00;;;;5091577;28;20533;-74
2022/10/24 04:06:31;;;;;;;0.00;0.00;;;14.20;99.90;13.50;96923.00;;;;5092899;28;20208;-74
2022/10/24 04:09:05;;;;;;;0.10;0.10;;;14.20;99.90;13.40;96920.00;;;;5084749;28;20351;-74
2022/10/24 04:11:33;;;;;;;0.00;0.00;;;14.20;99.90;13.40;96925.00;;;;5085931;28;20273;-74
2022/10/24 04:14:01;;;;;;;0.00;0.00;;;14.20;99.90;13.40;96860.00;;;;5089439;28;20198;-74
2022/10/24 04:16:34;;;;;;;0.00;0.00;;;14.20;99.90;13.40;96936.00;;;;5092026;28;20193;-74
2022/10/24 04:19:03;;;;;;;0.00;0.00;;;14.20;99.90;13.40;96928.00;;;;5083848;28;20608;-73
2022/10/24 04:21:31;;;;;;;0.00;0.00;;;14.20;99.90;13.40;96938.00;;;;5087521;28;20202;-74
2022/10/24 04:23:59;;;;;;;0.00;0.00;;;14.10;99.90;13.40;96936.00;;;;5082714;28;20274;-74
2022/10/24 04:26:29;;;;;;;0.10;0.10;;;14.10;99.90;13.30;96942.00;;;;5087813;28;20660;-74
2022/10/24 04:28:57;;;;;;;0.00;0.00;;;14.10;99.90;13.30;96948.00;;;;5079472;28;20783;-74
2022/10/24 04:31:25;;;;;;;0.05;0.05;;;14.10;99.90;13.30;96950.00;;;;5088371;28;20274;-74
2022/10/24 04:33:53;;;;;;;0.00;0.00;;;14.10;99.90;13.30;96950.00;;;;5091458;28;20193;-74
2022/10/24 04:36:21;;;;;;;0.10;0.10;;;14.10;99.90;13.30;96926.00;;;;5089416;28;20193;-74
2022/10/24 04:38:49;;;;;;;0.08;0.08;;;14.10;99.90;13.30;96926.00;;;;5080329;28;20580;-74
2022/10/24 04:41:18;;;;;;;0.10;0.10;;;14.10;99.90;13.30;96935.00;;;;5078968;28;20201;-74
2022/10/24 04:43:47;;;;;;;0.08;0.08;;;14.10;99.90;13.30;96919.00;;;;5096828;28;20193;-74
2022/10/24 04:46:15;;;;;;;0.00;0.00;;;14.10;99.90;13.30;96916.00;;;;5091047;28;20197;-74
2022/10/24 04:48:43;;;;;;;0.00;0.00;;;14.10;99.90;13.30;96907.00;;;;5080327;28;20631;-74
2022/10/24 04:51:11;;;;;;;0.08;0.08;;;14.10;99.90;13.30;96924.00;;;;5078376;28;20217;-74
2022/10/24 04:53:40;;;;;;;0.00;0.00;;;14.10;99.90;13.30;96930.00;;;;5094060;28;20250;-74
2022/10/24 04:56:08;;;;;;;0.00;0.00;;;14.00;99.90;13.30;96922.00;;;;5081224;28;20201;-74
2022/10/24 04:58:36;;;;;;;0.00;0.00;;;14.10;99.90;13.20;96926.00;;;;5083438;28;20252;-75
2022/10/24 05:01:06;;;;;;;0.00;0.00;;;14.00;99.90;13.30;96908.00;;;;5078211;28;20200;-74
2022/10/24 05:03:34;;;;;;;0.00;0.00;;;14.10;99.90;13.30;96923.00;;;;5088162;28;20560;-74
2022/10/24 05:06:02;;;;;;;0.10;0.10;;;14.10;99.90;13.20;96924.00;;;;5091739;28;20583;-74
2022/10/24 05:08:30;;;;;;;0.00;0.00;;;14.00;99.90;13.20;96940.00;;;;5086890;28;20292;-74
2022/10/24 05:11:01;;;;;;;0.00;0.00;;;14.00;99.90;13.20;96938.00;;;;5076414;28;20282;-74
2022/10/24 05:13:30;;;;;;;0.00;0.00;;;14.00;99.90;13.20;96939.00;;;;5077496;28;20197;-75
2022/10/24 05:16:05;;;;;;;0.10;0.10;;;14.00;99.90;13.20;96898.00;;;;5091029;28;20596;-75
2022/10/24 05:18:34;;;;;;;0.10;0.10;;;14.00;99.90;13.20;96943.00;;;;5076612;28;20234;-75
2022/10/24 05:21:02;;;;;;;0.00;0.00;;;13.90;99.90;13.20;96920.00;;;;5071129;28;20289;-75
2022/10/24 05:23:30;;;;;;;0.10;0.10;;;13.90;99.90;13.20;96919.00;;;;5071427;28;20537;-76
2022/10/24 05:25:58;;;;;;;0.00;0.00;;;13.90;99.90;13.20;96926.00;;;;5080876;28;20684;-75
2022/10/24 05:28:26;;;;;;;0.10;0.10;;;14.00;99.90;13.20;96900.00;;;;5070237;28;20213;-75
2022/10/24 05:30:54;;;;;;;0.00;0.00;;;13.90;99.90;13.20;96921.00;;;;5069537;28;20225;-75
2022/10/24 05:33:24;;;;;;;0.00;0.00;;;14.00;99.90;13.20;96931.00;;;;5070949;28;20190;-76
2022/10/24 05:35:53;;;;;;;0.00;0.00;;;14.00;99.90;13.20;96932.00;;;;5070636;28;20201;-75
2022/10/24 05:38:21;;;;;;;0.10;0.10;;;14.00;99.90;13.10;96943.00;;;;5073027;28;20615;-75
2022/10/24 05:40:50;;;;;;;0.00;0.00;;;13.90;99.90;13.10;96940.00;;;;5075665;28;20684;-75
2022/10/24 05:43:19;;;;;;;0.00;0.00;;;13.90;99.90;13.10;96930.00;;;;5070819;28;20198;-75
2022/10/24 05:45:48;;;;;;;0.10;0.10;;;13.90;99.90;13.00;96929.00;;;;5070605;28;20248;-75
2022/10/24 05:48:17;;;;;;;0.05;0.05;;;13.90;99.90;13.10;96931.00;;;;5072542;28;20280;-75
2022/10/24 05:50:47;;;;;;;0.00;0.00;;;13.90;99.90;13.10;96929.00;;;;5072929;28;20217;-75
2022/10/24 05:53:15;;;;;;;0.00;0.00;;;13.90;99.90;13.20;96931.00;;;;5074127;28;20190;-75
2022/10/24 05:55:43;;;;;;;0.00;0.00;;;13.90;99.90;13.10;96926.00;;;;5074294;28;20719;-75
2022/10/24 05:58:12;;;;;;;0.10;0.10;;;13.90;99.90;13.10;96933.00;;;;5073524;28;20216;-76
2022/10/24 06:00:40;;;;;;;0.00;0.00;;;13.90;99.90;13.20;96930.00;;;;5074393;28;20194;-75
2022/10/24 06:03:10;;;;;;;0.10;0.10;;;13.90;99.90;13.10;96922.00;;;;5076694;28;20271;-75
2022/10/24 06:05:38;;;;;;;0.00;0.00;;;13.90;99.90;13.20;96928.00;;;;5081151;28;20622;-75
2022/10/24 06:08:08;;;;;;;0.00;0.00;;;13.90;99.90;13.20;96924.00;;;;5073006;28;20295;-75
2022/10/24 06:10:36;;;;;;;0.10;0.10;;;14.00;99.90;13.20;96925.00;;;;5075071;28;20602;-75
2022/10/24 06:13:04;;;;;;;0.00;0.00;;;13.90;99.90;13.20;96926.00;;;;5094274;28;20271;-75
2022/10/24 06:15:33;;;;;;;0.00;0.00;;;14.00;99.90;13.20;96933.00;;;;5094171;28;20580;-75
2022/10/24 06:18:01;;;;;;;0.10;0.10;;;14.00;99.90;13.20;96925.00;;;;5092674;28;20258;-75
2022/10/24 06:20:29;;;;;;;0.10;0.10;;;14.00;99.90;13.20;96939.00;;;;5087629;28;20197;-75
2022/10/24 06:22:57;;;;;;;0.00;0.00;;;14.00;99.90;13.20;96934.00;;;;5090445;28;20198;-72
2022/10/24 06:25:26;;;;;;;0.10;0.10;;;14.00;99.90;13.20;96936.00;;;;5074619;28;20262;-73
2022/10/24 06:27:54;;;;;;;0.00;0.00;;;14.00;99.90;13.20;96934.00;;;;5098695;28;20214;-73
2022/10/24 06:30:22;;;;;;;0.10;0.10;;;14.00;99.90;13.20;96927.00;;;;5113140;28;20205;-73
2022/10/24 06:32:50;;;;;;;0.10;0.10;;;14.00;99.90;13.30;96924.00;;;;5113739;28;20217;-73
2022/10/24 06:35:20;;;;;;;0.10;0.10;;;14.00;99.90;13.20;96939.00;;;;5113717;28;20189;-74
2022/10/24 06:37:48;;;;;;;0.10;0.10;;;14.00;99.90;13.30;96934.00;;;;5111677;28;20228;-74
2022/10/24 06:40:18;;;;;;;0.00;0.00;;;14.00;99.90;13.30;96883.00;;;;5110536;28;20655;-74
2022/10/24 06:42:47;;;;;;;0.00;0.00;;;14.00;99.90;13.30;96938.00;;;;5110681;28;20193;-73
2022/10/24 06:45:17;;;;;;;0.10;0.10;;;14.10;99.90;13.30;96973.00;;;;5111250;28;20260;-74
2022/10/24 06:47:45;;;;;;;0.00;0.00;;;14.10;99.90;13.30;96981.00;;;;5111496;28;20213;-74
2022/10/24 06:50:20;;;;;;;0.10;0.10;;;14.10;99.90;13.40;96998.00;;;;5112341;28;20204;-74
2022/10/24 06:52:48;;;;;;;0.00;0.00;;;14.10;99.90;13.40;96956.00;;;;5109794;28;20261;-74
2022/10/24 06:55:16;;;;;;;0.00;0.00;;;14.20;99.90;13.50;96956.00;;;;5106660;28;20200;-73
2022/10/24 06:57:44;;;;;;;0.00;0.00;;;14.20;99.90;13.40;96948.00;;;;5104384;28;20318;-74
2022/10/24 07:00:15;;;;;;;0.00;0.00;;;14.20;99.90;13.40;96954.00;;;;5093844;28;20196;-74
2022/10/24 07:02:43;;;;;;;0.10;0.10;;;14.20;99.90;13.50;96977.00;;;;5075358;28;20238;-74
2022/10/24 07:05:13;;;;;;;0.08;0.08;;;14.20;99.90;13.50;96980.00;;;;5091270;28;20675;-74
2022/10/24 07:07:42;;;;;;;0.00;0.00;;;14.30;99.90;13.50;96984.00;;;;5082380;28;20310;-74
2022/10/24 07:10:14;;;;;;;0.00;0.00;;;14.30;99.90;13.60;96989.00;;;;5072968;28;20259;-74
2022/10/24 07:12:42;;;;;;;0.10;0.10;;;14.30;99.90;13.60;96992.00;;;;5072271;28;20624;-74
2022/10/24 07:15:13;;;;;;;0.10;0.10;;;14.40;99.90;13.60;96985.00;;;;5088389;28;20680;-76
2022/10/24 07:17:43;;;;;;;0.10;0.10;;;14.40;99.90;13.70;96939.00;;;;5092268;28;20262;-74
2022/10/24 07:20:13;;;;;;;0.00;0.00;;;14.50;99.90;13.70;96991.00;;;;5093084;28;20189;-74
2022/10/24 07:22:44;;;;;;;0.00;0.00;;;14.50;99.90;13.70;96998.00;;;;5091814;28;20201;-75
2022/10/24 07:25:13;;;;;;;0.00;0.00;;;14.50;99.90;13.80;96980.00;;;;5093404;28;20192;-74
2022/10/24 07:27:41;;;;;;;0.00;0.00;;;14.50;99.90;13.80;97001.00;;;;5093025;28;20205;-74
2022/10/24 07:30:18;;;;;;;0.00;0.00;;;14.60;99.90;13.90;97000.00;;;;5093101;28;20660;-74
2022/10/24 07:32:47;;;;;;;0.00;0.00;;;14.60;99.90;13.90;97015.00;;;;5093235;28;20220;-74
2022/10/24 07:35:15;;;;;;;0.00;0.00;;;14.70;99.90;13.90;97020.00;;;;5093861;28;20615;-73
2022/10/24 07:37:44;;;;;;;0.00;0.00;;;14.70;99.90;14.00;97023.00;;;;5091888;28;20212;-74
2022/10/24 07:40:13;;;;;;;0.00;0.00;;;14.70;99.90;14.00;97021.00;;;;5092800;28;20184;-74
2022/10/24 07:42:41;;;;;;;0.10;0.10;;;14.80;99.90;14.00;97033.00;;;;5092969;28;20246;-76
2022/10/24 07:45:11;;;;;;;0.00;0.00;;;14.80;99.90;14.00;97032.00;;;;5093665;28;20181;-74
2022/10/24 07:47:40;;;;;;;0.00;0.00;;;14.80;99.90;14.10;97037.00;;;;5092265;28;20667;-74
2022/10/24 07:50:09;;;;;;;0.10;0.10;;;14.80;99.90;14.00;97015.00;;;;5093810;28;20725;-74
2022/10/24 07:52:37;;;;;;;0.00;0.00;;;14.80;99.90;14.00;97017.00;;;;5085048;28;20220;-74
2022/10/24 07:55:06;;;;;;;0.00;0.00;;;14.80;99.90;14.10;97025.00;;;;5077526;28;20613;-74
2022/10/24 07:57:34;;;;;;;0.00;0.00;;;14.80;99.90;14.10;97013.00;;;;5091606;28;20227;-74
2022/10/24 08:00:04;;;;;;;0.00;0.00;;;14.80;99.90;14.10;97015.00;;;;5075434;28;20237;-74
2022/10/24 08:02:40;;;;;;;0.00;0.00;;;14.90;99.90;14.20;97012.00;;;;5071845;28;20197;-75
2022/10/24 08:05:11;;;;;;;0.00;0.00;;;14.90;99.90;14.10;96975.00;;;;5072164;28;20198;-75
2022/10/24 08:07:39;;;;;;;0.05;0.05;;;14.90;99.90;14.20;96981.00;;;;5071200;28;20209;-75
2022/10/24 08:10:10;;;;;;;0.00;0.00;;;15.00;99.90;14.30;96968.00;;;;5070748;28;20186;-74
2022/10/24 08:12:39;;;;;;;0.00;0.00;;;15.00;99.90;14.30;96968.00;;;;5071730;28;20263;-75
2022/10/24 08:15:08;;;;;;;0.00;0.00;;;15.00;99.90;14.30;96991.00;;;;5071228;28;20190;-75
2022/10/24 08:17:36;;;;;;;0.00;0.00;;;15.00;99.90;14.30;97006.00;;;;5071363;28;20213;-74
2022/10/24 08:20:08;;;;;;;0.00;0.00;;;15.00;99.90;14.30;97008.00;;;;5073224;28;20197;-74
2022/10/24 08:22:36;;;;;;;0.00;0.00;;;15.00;99.90;14.30;96969.00;;;;5072331;28;20247;-74
2022/10/24 08:25:08;;;;;;;0.00;0.00;;;15.10;99.90;14.30;96955.00;;;;5073037;28;20227;-74
2022/10/24 08:27:36;;;;;;;0.00;0.00;;;15.10;99.90;14.40;96958.00;;;;5071049;28;20240;-74
2022/10/24 08:30:06;;;;;;;0.00;0.00;;;15.10;99.90;14.40;96953.00;;;;5071671;28;20193;-74
2022/10/24 08:32:37;;;;;;;0.03;0.03;;;15.10;99.90;14.40;96946.00;;;;5051542;28;20229;-74
2022/10/24 08:35:08;;;;;;;0.10;0.10;;;15.10;99.90;14.40;96952.00;;;;5052098;28;20243;-74
2022/10/24 08:37:36;;;;;;;0.00;0.00;;;15.20;99.90;14.40;96918.00;;;;5051173;28;20284;-74
2022/10/24 08:40:18;;;;;;;0.05;0.05;;;15.20;99.90;14.50;96990.00;;;;5051629;28;20201;-74
2022/10/24 08:42:47;;;;;;;0.00;0.00;;;15.20;99.90;14.40;96986.00;;;;5052033;28;20212;-74
2022/10/24 08:45:25;;;;;;;0.00;0.00;;;15.20;99.90;14.40;96983.00;;;;5051920;28;20660;-74
2022/10/24 08:48:04;;;;;;;0.00;0.00;;;15.20;99.90;14.40;96978.00;;;;5050750;28;20794;-74
2022/10/24 08:50:37;;;;;;;0.00;0.00;;;15.10;99.90;14.30;96936.00;;;;5051579;28;20590;-74
2022/10/24 08:53:10;;;;;;;0.00;0.00;;;15.10;99.90;14.40;96977.00;;;;5051328;28;20362;-74
2022/10/24 08:55:43;;;;;;;0.03;0.03;;;15.10;99.90;14.40;96966.00;;;;5051323;28;20187;-74
2022/10/24 08:58:23;;;;;;;0.00;0.00;;;15.10;99.90;14.40;96965.00;;;;5051508;28;20719;-74
2022/10/24 09:00:54;;;;;;;0.00;0.00;;;15.10;99.90;14.40;96962.00;;;;5051685;28;20727;-74
2022/10/24 09:03:32;;;;;;;0.00;0.00;;;15.20;99.90;14.40;96973.00;;;;5051605;28;20685;-74
2022/10/24 09:06:25;;;;;;;0.10;0.10;;;15.20;99.90;14.40;96978.00;;;;5050925;28;20198;-74
2022/10/24 09:08:57;;;;;;;0.10;0.10;;;15.10;99.90;14.40;96993.00;;;;5050738;28;20276;-74
2022/10/24 09:11:37;;;;;;;0.00;0.00;;;15.20;99.90;14.40;97007.00;;;;5051746;28;20198;-74
2022/10/24 09:14:14;;;;;;;0.00;0.00;;;15.20;99.90;14.50;96991.00;;;;5051359;28;20225;-74
2022/10/24 09:16:44;;;;;;;0.05;0.05;;;15.20;99.90;14.50;96975.00;;;;5051101;28;20194;-74
2022/10/24 09:19:19;;;;;;;0.00;0.00;;;15.20;99.90;14.50;96981.00;;;;5055534;28;20280;-74
2022/10/24 09:21:51;;;;;;;0.00;0.00;;;15.20;99.90;14.50;96968.00;;;;5072952;28;20193;-74
2022/10/24 09:24:33;;;;;;;0.00;0.00;;;15.30;99.90;14.60;96961.00;;;;5076569;28;20722;-75
2022/10/24 09:27:05;;;;;;;0.00;0.00;;;15.30;99.90;14.70;96929.00;;;;5075941;28;20190;-75
2022/10/24 09:29:34;;;;;;;0.00;0.00;;;15.40;99.90;14.70;96904.00;;;;5075217;28;20214;-75
2022/10/24 09:32:03;;;;;;;0.00;0.00;;;15.40;99.90;14.70;96833.00;;;;5066864;28;20209;-74
2022/10/24 09:34:31;;;;;;;0.00;0.00;;;15.50;99.90;14.70;96842.00;;;;5058704;28;20222;-75
2022/10/24 09:37:01;;;;;;;0.00;0.00;;;15.40;99.90;14.60;96863.00;;;;5055714;28;20207;-74
2022/10/24 09:39:33;;;;;;;0.10;0.10;;;15.40;99.90;14.60;96911.00;;;;5059777;28;20218;-74
2022/10/24 09:42:03;;;;;;;0.00;0.00;;;15.40;99.90;14.60;96908.00;;;;5074110;28;20243;-74
2022/10/24 09:44:36;;;;;;;0.00;0.00;;;15.30;99.90;14.60;96907.00;;;;5074792;28;20224;-74
2022/10/24 09:47:09;;;;;;;0.00;0.00;;;15.30;99.90;14.50;96920.00;;;;5075465;28;20198;-74
2022/10/24 09:49:40;;;;;;;0.00;0.00;;;15.30;99.90;14.50;96923.00;;;;5074508;28;20213;-74
2022/10/24 09:52:20;;;;;;;0.00;0.00;;;15.30;99.90;14.50;96932.00;;;;5074783;28;20221;-74
2022/10/24 09:55:16;;;;;;;0.00;0.00;;;15.30;99.90;14.50;96916.00;;;;5075195;28;20217;-74
2022/10/24 09:57:44;;;;;;;0.00;0.00;;;15.30;99.90;14.50;96934.00;;;;5074878;28;20218;-74
2022/10/24 10:00:25;;;;;;;0.00;0.00;;;15.30;99.90;14.50;96948.00;;;;5075514;28;20232;-75
2022/10/24 10:03:06;;;;;;;0.00;0.00;;;15.30;99.90;14.50;96945.00;;;;5059988;28;20249;-75
2022/10/24 10:05:47;;;;;;;0.10;0.10;;;15.30;99.90;14.50;96947.00;;;;5065145;28;20726;-75
2022/10/24 10:08:24;;;;;;;0.00;0.00;;;15.20;99.90;14.50;96936.00;;;;5075778;28;20255;-74
2022/10/24 10:11:12;;;;;;;0.10;0.10;;;15.30;99.90;14.50;96933.00;;;;5057997;28;20194;-74
2022/10/24 10:13:48;;;;;;;0.00;0.00;;;15.30;99.90;14.60;96940.00;;;;5054088;28;20222;-74
2022/10/24 10:16:24;;;;;;;0.00;0.00;;;15.30;99.90;14.60;96952.00;;;;5054267;28;20201;-74
2022/10/24 10:19:02;;;;;;;0.00;0.00;;;15.30;99.90;14.60;96956.00;;;;5053397;28;20201;-74
2022/10/24 10:21:55;;;;;;;0.00;0.00;;;15.30;99.90;14.60;96952.00;;;;5054374;28;20186;-74
2022/10/24 10:24:38;;;;;;;0.00;0.00;;;15.30;99.90;14.60;96953.00;;;;5056051;28;20187;-74
2022/10/24 10:27:32;;;;;;;0.00;0.00;;;15.30;99.90;14.60;96980.00;;;;5054168;28;20559;-74
2022/10/24 10:30:18;;;;;;;0.00;0.00;;;15.30;99.90;14.30;96952.00;;;;5053904;28;20191;-74
2022/10/24 10:33:14;;;;;;;0.00;0.00;;;15.30;99.90;14.50;96952.00;;;;5053668;28;20221;-74
2022/10/24 10:35:55;;;;;;;0.00;0.00;;;15.30;99.90;14.50;96913.00;;;;5053858;28;20194;-74
2022/10/24 10:38:51;;;;;;;0.00;0.00;;;15.20;99.90;14.50;96955.00;;;;5053432;28;20214;-74
2022/10/24 10:41:40;;;;;;;0.00;0.00;;;15.20;99.90;14.40;96959.00;;;;5054822;28;20661;-74
2022/10/24 10:44:37;;;;;;;0.00;0.00;;;15.20;99.90;14.40;96971.00;;;;5053710;28;20198;-73
2022/10/24 10:47:16;;;;;;;0.00;0.00;;;15.20;99.90;14.40;96975.00;;;;5053529;28;20202;-75
2022/10/24 10:49:50;;;;;;;0.00;0.00;;;15.20;99.90;14.50;96985.00;;;;5053417;28;20222;-74
2022/10/24 10:52:25;;;;;;;0.00;0.00;;;15.20;99.90;14.40;96958.00;;;;5053766;28;20240;-74
2022/10/24 10:55:19;;;;;;;0.00;0.00;;;15.20;99.90;14.50;97005.00;;;;5053728;28;20243;-74
2022/10/24 10:58:01;;;;;;;0.00;0.00;;;15.20;99.90;14.50;97005.00;;;;5057334;28;20221;-74
2022/10/24 11:00:43;;;;;;;0.00;0.00;;;15.20;99.90;14.50;96948.00;;;;5057058;28;20244;-74
2022/10/24 11:03:29;;;;;;;0.00;0.00;;;15.20;99.90;14.50;96981.00;;;;5054035;28;20335;-74
2022/10/24 11:06:19;;;;;;;0.03;0.03;;;15.20;99.90;14.50;96959.00;;;;5053423;28;20194;-75
2022/10/24 11:09:11;;;;;;;0.00;0.00;;;15.20;99.90;14.50;96963.00;;;;5052810;28;20790;-75
2022/10/24 11:11:45;;;;;;;0.00;0.00;;;15.20;99.90;14.50;96980.00;;;;5053659;28;20665;-74
2022/10/24 11:14:29;;;;;;;0.00;0.00;;;15.20;99.90;14.50;96952.00;;;;5053338;28;20230;-74
2022/10/24 11:17:06;;;;;;;0.00;0.00;;;15.20;99.90;14.60;96933.00;;;;5053201;28;20689;-74
2022/10/24 11:19:50;;;;;;;0.00;0.00;;;15.30;99.90;14.60;96911.00;;;;5053119;28;20202;-74